Time;durP1;ratioP1;P1;durP2;ratioP2;P2;SDS_P1;SDS_P2;PMS_P1;PMS_P2;Temp;Humidity;BMP_temperature;BMP_pressure;BME280_temperature;BME280_humidity;BME280_pressure;Samples;Min_cycle;Max_cycle;Signal;HPM_P1;HPM_P2
2022/12/31 00:00:39;;;;;;;7.75;6.32;;;;;;;;;;10277535;28;20533;-64
2022/12/31 00:05:37;;;;;;;9.65;7.75;;;;;;;;;;10277391;28;20037;-64
2022/12/31 00:10:40;;;;;;;7.35;5.70;;;;;;;;;;10277322;28;20041;-64
2022/12/31 00:15:40;;;;;;;7.68;6.25;;;;;;;;;;10265142;28;20080;-64
2022/12/31 00:20:40;;;;;;;7.72;5.97;;;;;;;;;;10276737;28;20037;-64
2022/12/31 00:25:38;;;;;;;9.98;6.72;;;;;;;;;;10275120;28;20052;-64
2022/12/31 00:30:36;;;;;;;10.00;7.55;;;;;;;;;;10276401;28;20045;-64
2022/12/31 00:35:36;;;;;;;11.52;8.55;;;;;;;;;;10275326;28;20076;-65
2022/12/31 00:40:34;;;;;;;14.27;9.68;;;;;;;;;;10274634;28;20077;-64
2022/12/31 00:45:32;;;;;;;10.05;7.50;;;;;;;;;;10275216;28;20076;-64
2022/12/31 00:50:30;;;;;;;12.07;8.93;;;;;;;;;;10275146;28;20056;-63
2022/12/31 00:55:31;;;;;;;8.93;7.05;;;;;;;;;;10269435;28;20044;-64
2022/12/31 01:00:29;;;;;;;12.15;9.65;;;;;;;;;;10274660;28;20079;-64
2022/12/31 01:05:28;;;;;;;11.63;8.15;;;;;;;;;;10272898;28;20068;-64
2022/12/31 01:15:39;;;;;;;7.65;6.75;;;;;;;;;;10239438;28;20084;-64
2022/12/31 01:20:38;;;;;;;9.77;7.93;;;;;;;;;;10272786;28;20167;-64
2022/12/31 01:25:37;;;;;;;11.77;9.32;;;;;;;;;;10274063;28;20065;-64
2022/12/31 01:30:38;;;;;;;9.20;8.30;;;;;;;;;;10272941;28;20068;-64
2022/12/31 01:35:37;;;;;;;10.38;8.45;;;;;;;;;;10274190;28;20470;-64
2022/12/31 01:40:36;;;;;;;11.15;9.00;;;;;;;;;;10273435;28;20084;-64
2022/12/31 01:45:34;;;;;;;10.98;8.80;;;;;;;;;;10272922;28;20048;-64
2022/12/31 01:50:33;;;;;;;12.27;8.75;;;;;;;;;;10272382;28;20526;-63
2022/12/31 01:55:34;;;;;;;9.60;8.60;;;;;;;;;;10272643;28;20525;-64
2022/12/31 02:00:33;;;;;;;9.55;8.18;;;;;;;;;;10271405;28;20087;-64
2022/12/31 02:05:35;;;;;;;11.30;9.10;;;;;;;;;;10273177;28;20048;-64
2022/12/31 02:10:35;;;;;;;10.27;7.05;;;;;;;;;;10272501;28;20044;-64
2022/12/31 02:15:37;;;;;;;9.27;8.02;;;;;;;;;;10259186;28;20045;-64
2022/12/31 02:20:50;;;;;;;9.05;7.30;;;;;;;;;;10272868;28;20076;-64
2022/12/31 02:26:01;;;;;;;7.28;6.55;;;;;;;;;;10256928;28;20080;-64
2022/12/31 02:31:03;;;;;;;9.13;6.38;;;;;;;;;;10272108;28;20083;-64
2022/12/31 02:36:02;;;;;;;9.15;6.28;;;;;;;;;;10271958;28;20061;-64
2022/12/31 02:41:01;;;;;;;7.95;6.80;;;;;;;;;;10272370;28;20083;-64
2022/12/31 02:46:07;;;;;;;7.88;6.43;;;;;;;;;;10272847;28;20060;-64
2022/12/31 02:51:12;;;;;;;6.45;5.78;;;;;;;;;;10271162;28;20065;-64
2022/12/31 02:56:13;;;;;;;11.23;7.37;;;;;;;;;;10272690;28;20033;-64
2022/12/31 03:06:30;;;;;;;8.25;6.38;;;;;;;;;;10271698;28;20052;-64
2022/12/31 03:16:47;;;;;;;10.75;8.68;;;;;;;;;;10278389;28;20068;-64
2022/12/31 03:27:01;;;;;;;15.45;13.95;;;;;;;;;;10276480;28;20064;-64
2022/12/31 03:32:01;;;;;;;9.15;8.20;;;;;;;;;;10277718;28;20076;-64
2022/12/31 03:36:59;;;;;;;11.57;10.20;;;;;;;;;;10277855;28;20099;-64
2022/12/31 03:41:57;;;;;;;10.23;7.78;;;;;;;;;;10276076;28;20052;-64
2022/12/31 03:46:55;;;;;;;7.43;6.70;;;;;;;;;;10274888;28;20172;-64
2022/12/31 03:51:55;;;;;;;7.80;6.82;;;;;;;;;;10252559;28;20166;-64
2022/12/31 03:56:53;;;;;;;8.85;6.88;;;;;;;;;;10275226;28;20045;-65
2022/12/31 04:01:57;;;;;;;7.05;6.35;;;;;;;;;;10274926;28;20049;-64
2022/12/31 04:06:57;;;;;;;7.75;6.82;;;;;;;;;;10276071;28;20033;-64
2022/12/31 04:11:55;;;;;;;7.82;6.55;;;;;;;;;;10275308;28;20065;-64
2022/12/31 04:16:53;;;;;;;6.88;6.20;;;;;;;;;;10276429;28;20056;-64
2022/12/31 04:21:51;;;;;;;7.25;6.50;;;;;;;;;;10274074;28;20148;-64
2022/12/31 04:26:50;;;;;;;10.05;6.93;;;;;;;;;;10255521;28;20037;-64
2022/12/31 04:31:49;;;;;;;7.75;6.13;;;;;;;;;;10262539;28;20460;-63
2022/12/31 04:36:47;;;;;;;8.05;6.30;;;;;;;;;;10274404;28;20433;-64
2022/12/31 04:41:46;;;;;;;10.40;7.07;;;;;;;;;;10274123;28;20068;-64
2022/12/31 04:46:46;;;;;;;7.82;6.18;;;;;;;;;;10273344;28;20087;-64
2022/12/31 04:51:44;;;;;;;8.65;7.18;;;;;;;;;;10272981;28;20060;-64
2022/12/31 04:56:42;;;;;;;13.27;12.00;;;;;;;;;;10274339;28;20060;-64
2022/12/31 05:01:41;;;;;;;7.35;6.50;;;;;;;;;;10273401;28;20067;-64
2022/12/31 05:06:40;;;;;;;6.93;5.97;;;;;;;;;;10273690;28;20075;-64
2022/12/31 05:11:39;;;;;;;8.88;7.97;;;;;;;;;;10273510;28;20045;-64
2022/12/31 05:16:37;;;;;;;8.40;7.60;;;;;;;;;;10272434;28;20044;-64
2022/12/31 05:21:35;;;;;;;8.15;6.50;;;;;;;;;;10272834;28;20454;-64
2022/12/31 05:26:35;;;;;;;8.63;7.43;;;;;;;;;;10273481;28;20444;-64
2022/12/31 05:31:33;;;;;;;7.53;6.40;;;;;;;;;;10272958;28;20048;-64
2022/12/31 05:36:31;;;;;;;6.68;6.03;;;;;;;;;;10273713;28;20045;-64
2022/12/31 05:41:29;;;;;;;9.68;7.45;;;;;;;;;;10273556;28;20087;-63
2022/12/31 05:46:28;;;;;;;8.57;6.03;;;;;;;;;;10259917;28;20512;-63
2022/12/31 05:51:27;;;;;;;7.72;6.68;;;;;;;;;;10272032;28;20084;-60
2022/12/31 05:56:25;;;;;;;7.22;6.53;;;;;;;;;;10272259;28;20033;-63
2022/12/31 06:01:23;;;;;;;7.75;6.60;;;;;;;;;;10270796;28;20451;-64
2022/12/31 06:06:23;;;;;;;10.45;6.90;;;;;;;;;;10269254;28;20399;-63
2022/12/31 06:11:21;;;;;;;9.82;6.78;;;;;;;;;;10271284;28;20072;-63
2022/12/31 06:16:19;;;;;;;10.50;7.45;;;;;;;;;;10270332;28;20088;-63
2022/12/31 06:21:18;;;;;;;6.82;5.60;;;;;;;;;;10269846;28;20076;-64
2022/12/31 06:26:17;;;;;;;9.43;7.07;;;;;;;;;;10270543;28;20442;-63
2022/12/31 06:31:16;;;;;;;9.32;8.07;;;;;;;;;;10271856;28;20148;-63
2022/12/31 06:36:15;;;;;;;10.38;7.10;;;;;;;;;;10270700;28;20067;-64
2022/12/31 06:41:14;;;;;;;8.02;6.70;;;;;;;;;;10251922;28;20185;-64
2022/12/31 06:46:15;;;;;;;9.98;7.28;;;;;;;;;;10274808;28;20041;-64
2022/12/31 06:51:14;;;;;;;14.27;11.35;;;;;;;;;;10276739;28;20057;-63
2022/12/31 06:56:16;;;;;;;8.93;7.03;;;;;;;;;;10277404;28;20041;-63
2022/12/31 07:01:28;;;;;;;7.80;6.35;;;;;;;;;;10277910;28;20069;-64
2022/12/31 07:06:31;;;;;;;9.75;6.90;;;;;;;;;;10277190;28;20049;-62
2022/12/31 07:11:32;;;;;;;10.68;6.50;;;;;;;;;;10275509;28;20363;-63
2022/12/31 07:16:36;;;;;;;28.42;23.98;;;;;;;;;;10274597;28;20037;-63
2022/12/31 07:21:35;;;;;;;32.97;25.42;;;;;;;;;;10255473;28;20411;-63
2022/12/31 07:26:45;;;;;;;16.70;7.97;;;;;;;;;;10273806;28;20481;-65
2022/12/31 07:31:58;;;;;;;10.38;7.57;;;;;;;;;;10272455;28;20037;-63
2022/12/31 07:37:02;;;;;;;10.88;8.43;;;;;;;;;;10274455;28;20083;-64
2022/12/31 08:00:10;;;;;;;37.83;20.70;;;;;;;;;;10281425;28;20085;-64
2022/12/31 08:05:15;;;;;;;16.38;11.40;;;;;;;;;;10262465;28;20458;-64
2022/12/31 08:10:15;;;;;;;12.23;9.18;;;;;;;;;;10273959;28;20049;-64
2022/12/31 08:15:16;;;;;;;11.05;9.82;;;;;;;;;;10271306;28;20065;-64
2022/12/31 08:20:17;;;;;;;13.68;10.25;;;;;;;;;;10272657;28;20521;-64
2022/12/31 08:25:18;;;;;;;12.98;9.52;;;;;;;;;;10281027;28;20548;-64
2022/12/31 08:30:17;;;;;;;14.07;11.52;;;;;;;;;;10267521;28;20065;-64
2022/12/31 08:35:25;;;;;;;22.98;16.98;;;;;;;;;;10258126;28;20068;-64
2022/12/31 08:40:26;;;;;;;17.67;15.38;;;;;;;;;;10259990;28;20072;-64
2022/12/31 08:45:25;;;;;;;15.48;13.05;;;;;;;;;;10272464;28;20072;-64
2022/12/31 08:50:26;;;;;;;14.48;11.63;;;;;;;;;;10276881;28;20045;-64
2022/12/31 08:55:24;;;;;;;14.73;13.20;;;;;;;;;;10276911;28;20509;-64
2022/12/31 09:00:23;;;;;;;48.35;32.45;;;;;;;;;;10276587;28;20081;-64
2022/12/31 09:05:23;;;;;;;10.88;9.77;;;;;;;;;;10274964;28;20506;-64
2022/12/31 09:10:25;;;;;;;13.23;11.35;;;;;;;;;;10274384;28;20088;-65
2022/12/31 09:15:26;;;;;;;15.00;11.23;;;;;;;;;;10274118;28;20045;-65
2022/12/31 09:20:25;;;;;;;16.60;12.27;;;;;;;;;;10275754;28;20072;-67
2022/12/31 09:25:42;;;;;;;15.73;12.05;;;;;;;;;;10279001;28;20518;-68
2022/12/31 09:30:45;;;;;;;11.77;10.10;;;;;;;;;;10275005;28;20049;-68
2022/12/31 09:35:49;;;;;;;12.80;10.88;;;;;;;;;;10262159;28;20093;-68
2022/12/31 09:41:02;;;;;;;12.32;10.88;;;;;;;;;;10288473;28;20080;-68
2022/12/31 09:46:14;;;;;;;11.98;10.60;;;;;;;;;;10278788;28;21704;-68
2022/12/31 09:51:17;;;;;;;19.92;13.13;;;;;;;;;;10271397;28;20083;-68
2022/12/31 09:56:25;;;;;;;24.17;16.63;;;;;;;;;;10284322;28;20072;-68
2022/12/31 10:01:30;;;;;;;22.70;14.32;;;;;;;;;;10251156;28;20450;-68
2022/12/31 10:06:37;;;;;;;24.80;15.43;;;;;;;;;;10273997;28;20547;-69
2022/12/31 10:11:43;;;;;;;15.65;12.68;;;;;;;;;;10269647;28;20049;-69
2022/12/31 10:16:51;;;;;;;31.10;23.67;;;;;;;;;;10254635;28;20068;-68
2022/12/31 10:21:59;;;;;;;28.95;21.13;;;;;;;;;;10284878;28;20076;-67
2022/12/31 10:27:10;;;;;;;30.25;18.67;;;;;;;;;;10286006;28;20049;-65
2022/12/31 10:32:15;;;;;;;64.30;40.00;;;;;;;;;;10285845;28;20080;-67
2022/12/31 10:37:16;;;;;;;19.17;14.93;;;;;;;;;;10287571;28;20044;-66
2022/12/31 10:42:26;;;;;;;18.58;15.75;;;;;;;;;;10285714;28;20080;-66
2022/12/31 10:47:45;;;;;;;19.60;15.48;;;;;;;;;;10283343;28;20070;-66
2022/12/31 10:53:00;;;;;;;21.70;17.33;;;;;;;;;;10284441;28;20084;-65
2022/12/31 10:58:14;;;;;;;18.80;16.73;;;;;;;;;;10284817;28;20068;-66
2022/12/31 11:03:40;;;;;;;16.57;14.40;;;;;;;;;;10284119;28;20091;-66
2022/12/31 11:08:55;;;;;;;24.73;18.30;;;;;;;;;;10251113;28;20085;-66
2022/12/31 11:14:10;;;;;;;23.33;17.70;;;;;;;;;;10286692;28;20053;-63
2022/12/31 11:19:12;;;;;;;14.43;12.65;;;;;;;;;;10276365;28;20522;-64
2022/12/31 11:24:18;;;;;;;40.70;26.85;;;;;;;;;;10286764;28;20064;-64
2022/12/31 11:29:25;;;;;;;20.08;17.02;;;;;;;;;;10285942;28;20025;-63
2022/12/31 11:34:36;;;;;;;15.88;13.93;;;;;;;;;;10277399;28;20040;-63
2022/12/31 11:39:43;;;;;;;22.88;16.55;;;;;;;;;;10278688;28;20049;-64
2022/12/31 11:44:45;;;;;;;12.57;11.05;;;;;;;;;;10278235;28;20079;-63
2022/12/31 11:49:57;;;;;;;17.95;13.18;;;;;;;;;;10278145;28;20041;-63
2022/12/31 11:55:03;;;;;;;25.90;15.80;;;;;;;;;;10278555;28;20044;-63
2022/12/31 12:00:03;;;;;;;18.90;14.02;;;;;;;;;;10277392;28;21031;-64
2022/12/31 12:05:10;;;;;;;22.90;15.52;;;;;;;;;;10273963;28;20068;-64
2022/12/31 12:10:17;;;;;;;21.80;16.33;;;;;;;;;;10276098;28;20101;-65
2022/12/31 12:15:18;;;;;;;34.08;24.67;;;;;;;;;;10274533;28;20060;-64
2022/12/31 12:20:18;;;;;;;149.88;71.00;;;;;;;;;;10274964;28;20080;-63
2022/12/31 12:25:19;;;;;;;173.57;76.93;;;;;;;;;;10272922;28;20159;-64
2022/12/31 12:30:21;;;;;;;64.97;29.83;;;;;;;;;;10258731;28;20037;-64
2022/12/31 12:35:23;;;;;;;71.50;31.13;;;;;;;;;;10270860;28;20071;-64
2022/12/31 12:40:23;;;;;;;29.38;17.13;;;;;;;;;;10273812;28;20152;-64
2022/12/31 12:45:38;;;;;;;33.05;22.20;;;;;;;;;;10277422;28;20123;-66
2022/12/31 12:50:38;;;;;;;21.67;17.30;;;;;;;;;;10276498;28;20155;-63
2022/12/31 12:55:41;;;;;;;45.17;29.65;;;;;;;;;;10260209;28;20068;-63
2022/12/31 13:00:43;;;;;;;13.38;11.38;;;;;;;;;;10267304;28;20080;-64
2022/12/31 13:05:47;;;;;;;16.10;12.30;;;;;;;;;;10262164;28;20489;-63
2022/12/31 13:10:55;;;;;;;21.30;16.85;;;;;;;;;;10257865;28;20069;-63
2022/12/31 13:15:56;;;;;;;16.42;12.68;;;;;;;;;;10262906;28;20057;-64
2022/12/31 13:20:58;;;;;;;17.95;14.80;;;;;;;;;;10256878;28;20084;-63
2022/12/31 13:26:04;;;;;;;14.88;13.25;;;;;;;;;;10264118;28;20068;-63
2022/12/31 13:31:05;;;;;;;24.65;20.90;;;;;;;;;;10266331;28;20048;-64
2022/12/31 13:36:05;;;;;;;38.55;28.40;;;;;;;;;;10261484;28;20045;-64
2022/12/31 13:41:06;;;;;;;39.25;28.05;;;;;;;;;;10271806;28;20073;-64
2022/12/31 13:46:08;;;;;;;67.70;45.35;;;;;;;;;;10283302;28;20044;-65
2022/12/31 13:51:11;;;;;;;60.25;46.03;;;;;;;;;;10267397;28;20151;-64
2022/12/31 13:56:13;;;;;;;55.33;42.33;;;;;;;;;;10258844;28;20445;-64
2022/12/31 14:01:13;;;;;;;34.05;25.55;;;;;;;;;;10267442;28;20083;-65
2022/12/31 14:06:17;;;;;;;40.65;25.63;;;;;;;;;;10267608;28;20072;-64
2022/12/31 14:11:20;;;;;;;31.02;26.58;;;;;;;;;;10276908;28;20068;-64
2022/12/31 14:16:22;;;;;;;28.88;25.00;;;;;;;;;;10264783;28;20402;-64
2022/12/31 14:21:23;;;;;;;32.58;24.23;;;;;;;;;;10275643;28;20072;-65
2022/12/31 14:26:26;;;;;;;82.55;48.22;;;;;;;;;;10273858;28;20482;-65
2022/12/31 14:31:30;;;;;;;40.13;28.83;;;;;;;;;;10265581;28;20045;-64
2022/12/31 14:36:34;;;;;;;55.78;42.30;;;;;;;;;;10261949;28;20048;-63
2022/12/31 14:41:42;;;;;;;54.00;41.80;;;;;;;;;;10265883;28;20073;-64
2022/12/31 14:46:44;;;;;;;63.35;56.63;;;;;;;;;;10264948;28;20210;-63
2022/12/31 14:51:43;;;;;;;65.32;58.47;;;;;;;;;;10263900;28;20077;-63
2022/12/31 14:56:45;;;;;;;49.28;44.05;;;;;;;;;;10266712;28;20139;-64
2022/12/31 15:01:44;;;;;;;57.00;39.90;;;;;;;;;;10264767;28;20095;-63
2022/12/31 15:06:54;;;;;;;36.60;27.98;;;;;;;;;;10276593;28;20144;-63
2022/12/31 15:12:05;;;;;;;106.38;56.53;;;;;;;;;;10269736;28;20080;-63
2022/12/31 15:17:08;;;;;;;295.80;132.88;;;;;;;;;;10269605;28;20151;-63
2022/12/31 15:22:14;;;;;;;334.42;145.75;;;;;;;;;;10274520;28;20073;-63
2022/12/31 15:27:26;;;;;;;308.48;134.98;;;;;;;;;;10276632;28;20467;-63
2022/12/31 15:32:28;;;;;;;304.13;134.50;;;;;;;;;;10270602;28;20080;-62
2022/12/31 15:37:29;;;;;;;204.82;92.05;;;;;;;;;;10278879;28;20091;-62
2022/12/31 15:42:33;;;;;;;276.65;123.28;;;;;;;;;;10271734;28;20084;-63
2022/12/31 15:47:40;;;;;;;107.13;56.28;;;;;;;;;;10268161;28;20072;-63
2022/12/31 15:52:41;;;;;;;30.30;22.20;;;;;;;;;;10271910;28;20037;-63
2022/12/31 15:57:41;;;;;;;37.75;27.30;;;;;;;;;;10275801;28;20111;-63
2022/12/31 16:02:41;;;;;;;22.48;17.42;;;;;;;;;;10266163;28;20111;-62
2022/12/31 16:07:40;;;;;;;25.20;18.27;;;;;;;;;;10266944;28;20107;-63
2022/12/31 16:12:39;;;;;;;22.23;17.25;;;;;;;;;;10264873;28;20075;-62
2022/12/31 16:17:44;;;;;;;59.40;37.38;;;;;;;;;;10269534;28;20053;-62
2022/12/31 16:22:42;;;;;;;62.03;42.33;;;;;;;;;;10267216;28;20085;-62
2022/12/31 16:27:40;;;;;;;19.92;16.48;;;;;;;;;;10277900;28;20426;-62
2022/12/31 16:32:39;;;;;;;27.10;23.13;;;;;;;;;;10258677;28;20076;-63
2022/12/31 16:37:38;;;;;;;87.32;55.22;;;;;;;;;;10256164;28;20080;-62
2022/12/31 16:42:38;;;;;;;54.22;39.95;;;;;;;;;;10266595;28;20096;-63
2022/12/31 16:47:42;;;;;;;37.78;30.55;;;;;;;;;;10267494;28;20073;-63
2022/12/31 16:52:43;;;;;;;31.65;24.08;;;;;;;;;;10268006;28;20064;-63
2022/12/31 16:57:43;;;;;;;32.67;25.83;;;;;;;;;;10265725;28;20567;-63
2022/12/31 17:02:42;;;;;;;29.50;24.40;;;;;;;;;;10267789;28;20087;-63
2022/12/31 17:07:42;;;;;;;27.13;17.67;;;;;;;;;;10267839;28;20959;-63
2022/12/31 17:12:41;;;;;;;27.83;20.35;;;;;;;;;;10262077;28;20071;-64
2022/12/31 17:18:02;;;;;;;22.27;15.02;;;;;;;;;;10267015;28;20096;-64
2022/12/31 17:23:05;;;;;;;18.60;15.23;;;;;;;;;;10263783;28;20132;-64
2022/12/31 17:28:04;;;;;;;17.02;12.98;;;;;;;;;;10262009;28;20088;-64
2022/12/31 17:33:03;;;;;;;15.25;11.30;;;;;;;;;;10258439;28;20062;-64
2022/12/31 17:38:20;;;;;;;16.65;13.25;;;;;;;;;;10268878;28;20068;-64
2022/12/31 17:43:21;;;;;;;22.45;17.10;;;;;;;;;;10267310;28;20075;-64
2022/12/31 17:48:19;;;;;;;19.77;15.32;;;;;;;;;;10262715;28;20533;-63
2022/12/31 17:53:18;;;;;;;15.77;14.15;;;;;;;;;;10261924;28;20065;-64
2022/12/31 17:58:17;;;;;;;17.58;13.75;;;;;;;;;;10262550;28;20063;-64
2022/12/31 18:03:17;;;;;;;125.95;71.25;;;;;;;;;;10265575;28;20083;-64
2022/12/31 18:08:15;;;;;;;79.43;60.55;;;;;;;;;;10268201;28;20072;-65
2022/12/31 18:13:16;;;;;;;39.03;28.80;;;;;;;;;;10266906;28;20044;-64
2022/12/31 18:18:22;;;;;;;23.10;18.27;;;;;;;;;;10268081;28;20623;-63
2022/12/31 18:23:25;;;;;;;57.30;42.40;;;;;;;;;;10266719;28;20087;-63
2022/12/31 18:28:23;;;;;;;43.33;34.08;;;;;;;;;;10264681;28;20072;-64
2022/12/31 18:33:23;;;;;;;22.00;17.73;;;;;;;;;;10267826;28;20045;-64
2022/12/31 18:38:22;;;;;;;20.45;15.20;;;;;;;;;;10261021;28;20084;-64
2022/12/31 18:43:20;;;;;;;34.67;25.02;;;;;;;;;;10271959;28;20080;-64
2022/12/31 18:48:18;;;;;;;28.08;21.23;;;;;;;;;;10273705;28;20087;-63
2022/12/31 18:53:19;;;;;;;18.92;16.90;;;;;;;;;;10273100;28;20442;-64
2022/12/31 18:58:17;;;;;;;24.30;20.80;;;;;;;;;;10274143;28;20642;-64
2022/12/31 19:03:16;;;;;;;26.00;20.65;;;;;;;;;;10271990;28;20084;-64
2022/12/31 19:08:15;;;;;;;11.95;10.75;;;;;;;;;;10268931;28;20458;-66
2022/12/31 19:13:15;;;;;;;12.50;11.18;;;;;;;;;;10272739;28;20052;-64
2022/12/31 19:18:13;;;;;;;13.05;11.75;;;;;;;;;;10257791;28;20247;-64
2022/12/31 19:23:15;;;;;;;16.10;11.00;;;;;;;;;;10259695;28;20053;-64
2022/12/31 19:28:17;;;;;;;15.80;12.10;;;;;;;;;;10272742;28;20113;-64
2022/12/31 19:33:15;;;;;;;14.07;12.52;;;;;;;;;;10268961;28;20126;-64
2022/12/31 19:38:16;;;;;;;15.68;12.75;;;;;;;;;;10270710;28;20095;-64
2022/12/31 19:43:17;;;;;;;13.73;12.32;;;;;;;;;;10272346;28;20068;-63
2022/12/31 19:48:16;;;;;;;15.27;12.35;;;;;;;;;;10273217;28;20379;-64
2022/12/31 19:53:15;;;;;;;19.08;15.65;;;;;;;;;;10265718;28;20470;-64
2022/12/31 19:58:17;;;;;;;17.80;12.73;;;;;;;;;;10270452;28;20032;-64
2022/12/31 20:03:15;;;;;;;12.65;11.35;;;;;;;;;;10271867;28;20076;-64
2022/12/31 20:08:15;;;;;;;14.25;10.30;;;;;;;;;;10271179;28;20470;-65
2022/12/31 20:13:13;;;;;;;14.45;10.23;;;;;;;;;;10257335;28;20064;-64
2022/12/31 20:18:16;;;;;;;10.10;9.13;;;;;;;;;;10269047;28;20435;-64
2022/12/31 20:23:14;;;;;;;9.65;8.48;;;;;;;;;;10264998;28;20469;-64
2022/12/31 20:28:12;;;;;;;11.55;9.13;;;;;;;;;;10270698;28;20068;-64
2022/12/31 20:33:10;;;;;;;10.88;9.68;;;;;;;;;;10270943;28;20508;-64
2022/12/31 20:38:17;;;;;;;10.38;9.27;;;;;;;;;;10270096;28;20123;-66
2022/12/31 20:43:15;;;;;;;11.90;10.23;;;;;;;;;;10265201;28;20060;-66
2022/12/31 20:48:13;;;;;;;14.90;10.50;;;;;;;;;;10269642;28;20272;-66
2022/12/31 20:53:11;;;;;;;27.48;10.70;;;;;;;;;;10279977;28;20364;-64
2022/12/31 20:58:11;;;;;;;11.32;8.38;;;;;;;;;;10272822;28;20064;-67
2022/12/31 21:03:10;;;;;;;11.90;9.95;;;;;;;;;;10271375;28;20505;-66
2022/12/31 21:08:28;;;;;;;16.10;12.98;;;;;;;;;;10273955;28;20072;-66
2022/12/31 21:13:33;;;;;;;11.18;9.50;;;;;;;;;;10270648;28;20120;-66
2022/12/31 21:18:31;;;;;;;11.52;9.40;;;;;;;;;;10271046;28;20084;-66
2022/12/31 21:23:31;;;;;;;9.57;8.63;;;;;;;;;;10268547;28;20049;-67
2022/12/31 21:28:30;;;;;;;10.52;9.35;;;;;;;;;;10269202;28;20064;-66
2022/12/31 21:33:29;;;;;;;9.93;8.40;;;;;;;;;;10269395;28;20124;-66
2022/12/31 21:38:27;;;;;;;9.88;8.82;;;;;;;;;;10266994;28;20060;-65
2022/12/31 21:43:26;;;;;;;12.50;7.65;;;;;;;;;;10267106;28;20041;-65
2022/12/31 21:48:24;;;;;;;10.95;8.65;;;;;;;;;;10261733;28;20120;-64
2022/12/31 21:53:24;;;;;;;10.38;9.10;;;;;;;;;;10266363;28;20044;-64
2022/12/31 21:58:32;;;;;;;19.58;9.05;;;;;;;;;;10274295;28;20135;-64
2022/12/31 22:03:31;;;;;;;116.28;77.47;;;;;;;;;;10283171;28;20088;-63
2022/12/31 22:08:30;;;;;;;33.28;23.98;;;;;;;;;;10266540;28;20068;-64
2022/12/31 22:13:28;;;;;;;12.57;10.65;;;;;;;;;;10272479;28;20068;-63
2022/12/31 22:18:27;;;;;;;13.50;9.13;;;;;;;;;;10276757;28;20466;-64
2022/12/31 22:23:25;;;;;;;9.68;8.02;;;;;;;;;;10251863;28;20123;-64
2022/12/31 22:28:25;;;;;;;8.77;7.97;;;;;;;;;;10262646;28;20482;-65
2022/12/31 22:33:36;;;;;;;18.13;14.48;;;;;;;;;;10262001;28;20061;-67
2022/12/31 22:38:34;;;;;;;11.18;8.50;;;;;;;;;;10259261;28;20419;-64
2022/12/31 22:43:35;;;;;;;9.73;8.43;;;;;;;;;;10266361;28;20080;-65
2022/12/31 22:48:33;;;;;;;9.90;8.63;;;;;;;;;;10261579;28;20469;-65
2022/12/31 22:53:32;;;;;;;12.05;9.85;;;;;;;;;;10266272;28;20459;-65
2022/12/31 22:58:30;;;;;;;10.15;9.13;;;;;;;;;;10267899;28;20072;-65
2022/12/31 23:03:29;;;;;;;12.25;9.60;;;;;;;;;;10254908;28;20064;-65
2022/12/31 23:08:27;;;;;;;10.02;8.88;;;;;;;;;;10259074;28;20113;-64
2022/12/31 23:24:05;;;;;;;15.43;11.45;;;;;;;;;;10265655;28;20079;-64
2022/12/31 23:29:15;;;;;;;11.38;10.00;;;;;;;;;;10276428;28;20061;-64
2022/12/31 23:34:15;;;;;;;11.75;10.38;;;;;;;;;;10275758;28;20442;-64
2022/12/31 23:39:13;;;;;;;14.10;10.20;;;;;;;;;;10292083;28;20072;-64
2022/12/31 23:44:12;;;;;;;11.27;9.75;;;;;;;;;;10272259;28;20073;-64
2022/12/31 23:49:10;;;;;;;10.57;9.40;;;;;;;;;;10272276;28;20459;-65
2022/12/31 23:54:10;;;;;;;11.32;9.50;;;;;;;;;;10270866;28;20068;-64
2022/12/31 23:59:09;;;;;;;10.45;9.40;;;;;;;;;;10279465;28;20075;-65
